createdAt,value
2022-10-11T00:00:06.874Z,9.45
2022-10-11T00:01:06.905Z,9.42
2022-10-11T00:02:06.872Z,9.38
2022-10-11T00:03:06.843Z,9.41
2022-10-11T00:04:06.845Z,9.38
2022-10-11T00:05:06.811Z,9.40
2022-10-11T00:06:07.435Z,9.40
2022-10-11T00:07:06.784Z,9.41
2022-10-11T00:08:06.781Z,9.37
2022-10-11T00:09:06.757Z,9.34
2022-10-11T00:10:06.748Z,9.41
2022-10-11T00:11:06.740Z,9.41
2022-10-11T00:12:06.724Z,9.41
2022-10-11T00:13:06.703Z,9.41
2022-10-11T00:14:06.730Z,9.38
2022-10-11T00:15:06.684Z,9.37
2022-10-11T00:16:07.065Z,9.38
2022-10-11T00:17:06.672Z,9.40
2022-10-11T00:18:06.643Z,9.41
2022-10-11T00:19:06.632Z,9.40
2022-10-11T00:20:06.645Z,9.37
2022-10-11T00:21:06.611Z,9.35
2022-10-11T00:22:06.614Z,9.31
2022-10-11T00:23:06.596Z,9.37
2022-10-11T00:24:06.560Z,9.32
2022-10-11T00:25:06.564Z,9.35
2022-10-11T00:26:07.166Z,9.38
2022-10-11T00:27:06.524Z,9.37
2022-10-11T00:28:06.601Z,9.37
2022-10-11T00:29:06.501Z,9.34
2022-10-11T00:30:06.497Z,9.32
2022-10-11T00:31:07.133Z,9.27
2022-10-11T00:32:06.496Z,9.26
2022-10-11T00:33:06.476Z,9.24
2022-10-11T00:34:06.437Z,9.19
2022-10-11T00:35:06.439Z,9.20
2022-10-11T00:36:07.008Z,9.19
2022-10-11T00:37:06.401Z,9.17
2022-10-11T00:38:06.391Z,9.13
2022-10-11T00:39:06.392Z,9.16
2022-10-11T00:40:06.356Z,9.16
2022-10-11T00:41:06.359Z,9.22
2022-10-11T00:42:06.367Z,9.19
2022-10-11T00:43:06.331Z,9.16
2022-10-11T00:44:06.338Z,9.19
2022-10-11T00:45:06.292Z,9.19
2022-10-11T00:46:06.734Z,9.16
2022-10-11T00:47:06.266Z,9.13
2022-10-11T00:48:06.254Z,9.19
2022-10-11T00:49:06.293Z,9.17
2022-10-11T00:50:06.238Z,9.17
2022-10-11T00:51:06.575Z,9.19
2022-10-11T00:52:06.204Z,9.19
2022-10-11T00:53:06.211Z,9.19
2022-10-11T00:54:06.174Z,9.23
2022-10-11T00:55:06.168Z,9.26
2022-10-11T00:56:06.537Z,9.23
2022-10-11T00:57:06.151Z,9.24
2022-10-11T00:58:06.128Z,9.22
2022-10-11T00:59:06.157Z,9.20
2022-10-11T01:00:06.107Z,9.17
2022-10-11T01:01:06.146Z,9.19
2022-10-11T01:02:06.117Z,9.23
2022-10-11T01:03:06.061Z,9.23
2022-10-11T01:04:06.050Z,9.22
2022-10-11T01:05:28.157Z,9.20
2022-10-11T01:06:06.546Z,9.20
2022-10-11T01:07:06.017Z,9.23
2022-10-11T01:08:06.064Z,9.20
2022-10-11T01:09:05.985Z,9.24
2022-10-11T01:10:05.972Z,9.22
2022-10-11T01:11:05.960Z,9.24
2022-10-11T01:12:05.949Z,9.22
2022-10-11T01:13:05.935Z,9.17
2022-10-11T01:14:05.934Z,9.22
2022-10-11T01:15:05.991Z,9.20
2022-10-11T01:16:06.390Z,9.22
2022-10-11T01:17:05.907Z,9.22
2022-10-11T01:18:05.870Z,9.17
2022-10-11T01:19:05.894Z,9.20
2022-10-11T01:20:05.858Z,9.22
2022-10-11T01:21:05.831Z,9.22
2022-10-11T01:22:05.843Z,9.17
2022-10-11T01:23:05.810Z,9.20
2022-10-11T01:24:08.563Z,9.19
2022-10-11T01:25:05.809Z,9.22
2022-10-11T01:26:06.296Z,9.15
2022-10-11T01:27:05.757Z,9.20
2022-10-11T01:28:05.779Z,9.19
2022-10-11T01:29:05.731Z,9.20
2022-10-11T01:30:05.721Z,9.13
2022-10-11T01:31:05.704Z,9.15
2022-10-11T01:32:05.730Z,9.16
2022-10-11T01:33:05.681Z,9.15
2022-10-11T01:34:05.662Z,9.08
2022-10-11T01:35:05.685Z,9.06
2022-10-11T01:36:06.152Z,9.06
2022-10-11T01:37:05.630Z,8.97
2022-10-11T01:38:05.626Z,9.00
2022-10-11T01:39:05.616Z,8.98
2022-10-11T01:40:05.587Z,8.98
2022-10-11T01:41:05.583Z,9.00
2022-10-11T01:42:05.576Z,9.04
2022-10-11T01:43:05.560Z,9.01
2022-10-11T01:44:05.551Z,9.00
2022-10-11T01:45:05.560Z,8.98
2022-10-11T01:46:05.985Z,8.97
2022-10-11T01:47:05.500Z,8.98
2022-10-11T01:48:05.508Z,8.97
2022-10-11T01:49:05.469Z,8.96
2022-10-11T01:50:05.474Z,8.97
2022-10-11T01:51:05.487Z,8.94
2022-10-11T01:52:05.430Z,8.91
2022-10-11T01:53:05.425Z,8.89
2022-10-11T01:54:05.407Z,8.91
2022-10-11T01:55:09.755Z,8.89
2022-10-11T01:56:05.822Z,8.86
2022-10-11T01:57:05.394Z,8.82
2022-10-11T01:58:05.423Z,8.89
2022-10-11T01:59:05.344Z,8.88
2022-10-11T02:00:05.338Z,8.85
2022-10-11T02:01:05.409Z,8.86
2022-10-11T02:02:05.320Z,8.86
2022-10-11T02:03:05.297Z,8.82
2022-10-11T02:04:05.325Z,8.83
2022-10-11T02:05:05.270Z,8.82
2022-10-11T02:06:05.547Z,8.86
2022-10-11T02:07:05.279Z,8.86
2022-10-11T02:08:05.240Z,8.85
2022-10-11T02:09:08.060Z,8.82
2022-10-11T02:10:05.239Z,8.82
2022-10-11T02:11:05.189Z,8.76
2022-10-11T02:12:05.174Z,8.80
2022-10-11T02:13:05.205Z,8.80
2022-10-11T02:14:05.165Z,8.82
2022-10-11T02:15:05.145Z,8.80
2022-10-11T02:16:05.464Z,8.78
2022-10-11T02:17:05.109Z,8.82
2022-10-11T02:18:05.102Z,8.82
2022-10-11T02:19:05.112Z,8.79
2022-10-11T02:20:05.081Z,8.82
2022-10-11T02:21:05.063Z,8.80
2022-10-11T02:22:05.097Z,8.85
2022-10-11T02:23:05.044Z,8.82
2022-10-11T02:24:05.024Z,8.85
2022-10-11T02:25:05.056Z,8.83
2022-10-11T02:26:05.416Z,8.80
2022-10-11T02:27:04.984Z,8.82
2022-10-11T02:28:05.013Z,8.80
2022-10-11T02:29:04.957Z,8.79
2022-10-11T02:30:04.947Z,8.79
2022-10-11T02:31:04.972Z,8.73
2022-10-11T02:32:04.940Z,8.68
2022-10-11T02:33:04.907Z,8.71
2022-10-11T02:34:04.901Z,8.67
2022-10-11T02:35:04.897Z,8.67
2022-10-11T02:36:05.216Z,8.64
2022-10-11T02:37:04.868Z,8.61
2022-10-11T02:38:04.917Z,8.67
2022-10-11T02:39:04.831Z,8.68
2022-10-11T02:40:04.821Z,8.65
2022-10-11T02:41:04.823Z,8.64
2022-10-11T02:42:04.794Z,8.64
2022-10-11T02:43:04.780Z,8.67
2022-10-11T02:44:04.781Z,8.67
2022-10-11T02:45:04.764Z,8.71
2022-10-11T02:46:05.056Z,8.67
2022-10-11T02:47:04.727Z,8.67
2022-10-11T02:48:04.722Z,8.68
2022-10-11T02:49:04.706Z,8.67
2022-10-11T02:50:04.697Z,8.67
2022-10-11T02:51:04.685Z,8.65
2022-10-11T02:52:04.676Z,8.63
2022-10-11T02:53:04.651Z,8.65
2022-10-11T02:54:04.660Z,8.61
2022-10-11T02:55:04.629Z,8.61
2022-10-11T02:56:05.090Z,8.60
2022-10-11T02:57:04.622Z,8.61
2022-10-11T02:58:04.605Z,8.63
2022-10-11T02:59:04.571Z,8.63
2022-10-11T03:00:04.570Z,8.67
2022-10-11T03:01:04.552Z,8.63
2022-10-11T03:02:04.608Z,8.60
2022-10-11T03:03:04.532Z,8.61
2022-10-11T03:04:04.510Z,8.57
2022-10-11T03:05:04.499Z,8.57
2022-10-11T03:06:04.849Z,8.61
2022-10-11T03:07:04.486Z,8.61
2022-10-11T03:08:04.469Z,8.63
2022-10-11T03:09:04.469Z,8.63
2022-10-11T03:10:04.454Z,8.64
2022-10-11T03:11:04.426Z,8.67
2022-10-11T03:12:04.444Z,8.60
2022-10-11T03:13:04.395Z,8.61
2022-10-11T03:14:04.393Z,8.63
2022-10-11T03:15:04.412Z,8.58
2022-10-11T03:16:04.358Z,8.61
2022-10-11T03:17:30.961Z,8.58
2022-10-11T03:18:04.357Z,8.58
2022-10-11T03:19:04.323Z,8.57
2022-10-11T03:20:04.313Z,8.54
2022-10-11T03:21:04.343Z,8.58
2022-10-11T03:22:04.281Z,8.55
2022-10-11T03:23:04.268Z,8.55
2022-10-11T03:24:04.291Z,8.54
2022-10-11T03:25:04.933Z,8.54
2022-10-11T03:26:04.732Z,8.55
2022-10-11T03:27:04.304Z,8.52
2022-10-11T03:28:04.204Z,8.50
2022-10-11T03:29:04.192Z,8.52
2022-10-11T03:30:04.178Z,8.45
2022-10-11T03:31:04.175Z,8.43
2022-10-11T03:32:04.166Z,8.45
2022-10-11T03:33:04.142Z,8.40
2022-10-11T03:34:04.137Z,8.46
2022-10-11T03:35:04.112Z,8.46
2022-10-11T03:36:04.317Z,8.50
2022-10-11T03:37:04.117Z,8.54
2022-10-11T03:38:04.103Z,8.49
2022-10-11T03:39:04.064Z,8.54
2022-10-11T03:40:04.099Z,8.54
2022-10-11T03:41:04.042Z,8.45
2022-10-11T03:42:04.023Z,8.45
2022-10-11T03:43:04.026Z,8.43
2022-10-11T03:44:04.014Z,8.46
2022-10-11T03:45:03.985Z,8.45
2022-10-11T03:46:04.480Z,8.45
2022-10-11T03:47:03.994Z,8.37
2022-10-11T03:48:03.954Z,8.45
2022-10-11T03:49:03.930Z,8.45
2022-10-11T03:50:03.960Z,8.45
2022-10-11T03:51:03.911Z,8.45
2022-10-11T03:52:03.897Z,8.45
2022-10-11T03:53:03.907Z,8.43
2022-10-11T03:54:03.867Z,8.45
2022-10-11T03:55:03.862Z,8.43
2022-10-11T03:56:08.337Z,8.43
2022-10-11T03:57:03.832Z,8.45
2022-10-11T03:58:03.819Z,8.42
2022-10-11T03:59:03.805Z,8.40
2022-10-11T04:00:03.820Z,8.40
2022-10-11T04:01:03.781Z,8.42
2022-10-11T04:02:03.849Z,8.37
2022-10-11T04:03:03.799Z,8.32
2022-10-11T04:04:03.758Z,8.28
2022-10-11T04:05:03.736Z,8.24
2022-10-11T04:06:04.121Z,8.24
2022-10-11T04:07:03.714Z,8.28
2022-10-11T04:08:06.261Z,8.28
2022-10-11T04:09:03.685Z,8.29
2022-10-11T04:10:03.682Z,8.31
2022-10-11T04:11:03.652Z,8.29
2022-10-11T04:12:03.648Z,8.28
2022-10-11T04:13:03.668Z,8.27
2022-10-11T04:14:03.629Z,8.22
2022-10-11T04:15:03.607Z,8.29
2022-10-11T04:16:04.052Z,8.22
2022-10-11T04:17:03.574Z,8.21
2022-10-11T04:18:03.557Z,8.22
2022-10-11T04:19:03.588Z,8.20
2022-10-11T04:20:03.561Z,8.22
2022-10-11T04:21:03.525Z,8.22
2022-10-11T04:22:03.519Z,8.22
2022-10-11T04:23:03.547Z,8.20
2022-10-11T04:24:03.482Z,8.13
2022-10-11T04:25:03.486Z,8.13
2022-10-11T04:26:03.914Z,8.12
2022-10-11T04:27:03.448Z,8.13
2022-10-11T04:28:03.432Z,8.17
2022-10-11T04:29:03.462Z,8.18
2022-10-11T04:30:03.409Z,8.17
2022-10-11T04:31:03.403Z,8.17
2022-10-11T04:32:03.416Z,8.18
2022-10-11T04:33:03.366Z,8.17
2022-10-11T04:34:03.432Z,8.09
2022-10-11T04:35:04.704Z,8.03
2022-10-11T04:36:03.749Z,8.00
2022-10-11T04:37:03.315Z,7.99
2022-10-11T04:38:03.383Z,7.96
2022-10-11T04:39:03.296Z,8.03
2022-10-11T04:40:03.275Z,8.07
2022-10-11T04:41:03.317Z,7.96
2022-10-11T04:42:03.254Z,7.91
2022-10-11T04:43:03.241Z,7.91
2022-10-11T04:44:03.294Z,7.95
2022-10-11T04:45:03.219Z,7.99
2022-10-11T04:46:03.237Z,8.06
2022-10-11T04:47:03.218Z,8.10
2022-10-11T04:48:03.183Z,8.10
2022-10-11T04:49:03.160Z,8.10
2022-10-11T04:50:03.264Z,8.07
2022-10-11T04:51:03.139Z,8.03
2022-10-11T04:52:03.122Z,7.99
2022-10-11T04:53:03.152Z,7.99
2022-10-11T04:54:03.101Z,7.89
2022-10-11T04:55:03.091Z,7.95
2022-10-11T04:56:03.611Z,7.86
2022-10-11T04:57:03.063Z,7.91
2022-10-11T04:58:03.048Z,7.88
2022-10-11T04:59:03.074Z,7.88
2022-10-11T05:00:03.026Z,7.86
2022-10-11T05:01:03.020Z,7.85
2022-10-11T05:02:03.156Z,7.79
2022-10-11T05:03:03.007Z,7.74
2022-10-11T05:04:02.970Z,7.69
2022-10-11T05:05:02.999Z,7.70
2022-10-11T05:06:05.670Z,7.71
2022-10-11T05:07:02.930Z,7.81
2022-10-11T05:08:02.996Z,7.86
2022-10-11T05:09:02.937Z,7.91
2022-10-11T05:10:02.904Z,7.94
2022-10-11T05:11:02.872Z,7.99
2022-10-11T05:12:02.818Z,7.96
2022-10-11T05:13:02.803Z,8.00
2022-10-11T05:14:02.877Z,7.91
2022-10-11T05:15:02.790Z,7.88
2022-10-11T05:16:06.929Z,7.84
2022-10-11T05:17:02.807Z,7.77
2022-10-11T05:18:02.740Z,7.71
2022-10-11T05:19:02.735Z,7.71
2022-10-11T05:20:02.816Z,7.88
2022-10-11T05:21:02.708Z,7.86
2022-10-11T05:22:02.707Z,7.84
2022-10-11T05:23:02.685Z,7.85
2022-10-11T05:24:02.673Z,7.76
2022-10-11T05:25:02.651Z,7.73
2022-10-11T05:26:03.131Z,7.82
2022-10-11T05:27:03.682Z,7.76
2022-10-11T05:28:02.614Z,7.79
2022-10-11T05:29:02.750Z,7.70
2022-10-11T05:30:02.610Z,7.73
2022-10-11T05:31:02.572Z,7.76
2022-10-11T05:32:02.588Z,7.73
2022-10-11T05:33:02.597Z,7.74
2022-10-11T05:34:02.540Z,7.71
2022-10-11T05:35:02.523Z,7.74
2022-10-11T05:36:02.957Z,7.76
2022-10-11T05:37:02.516Z,7.70
2022-10-11T05:38:02.520Z,7.63
2022-10-11T05:39:02.488Z,7.69
2022-10-11T05:40:02.468Z,7.62
2022-10-11T05:41:02.450Z,7.62
2022-10-11T05:42:05.452Z,7.63
2022-10-11T05:43:02.438Z,7.63
2022-10-11T05:44:02.420Z,7.63
2022-10-11T05:45:02.433Z,7.58
2022-10-11T05:46:02.799Z,7.55
2022-10-11T05:47:02.374Z,7.54
2022-10-11T05:48:02.402Z,7.55
2022-10-11T05:49:02.340Z,7.60
2022-10-11T05:50:02.625Z,7.66
2022-10-11T05:51:02.360Z,7.66
2022-10-11T05:52:02.303Z,7.67
2022-10-11T05:53:02.292Z,7.66
2022-10-11T05:54:02.534Z,7.62
2022-10-11T05:55:02.277Z,7.62
2022-10-11T05:56:02.585Z,7.62
2022-10-11T05:57:02.275Z,7.62
2022-10-11T05:58:02.233Z,7.63
2022-10-11T05:59:02.732Z,7.58
2022-10-11T06:00:02.213Z,7.57
2022-10-11T06:01:02.347Z,7.57
2022-10-11T06:02:02.180Z,7.66
2022-10-11T06:03:02.177Z,7.63
2022-10-11T06:04:02.154Z,7.67
2022-10-11T06:05:02.166Z,7.71
2022-10-11T06:06:02.131Z,7.69
2022-10-11T06:07:02.141Z,7.73
2022-10-11T06:08:02.132Z,7.85
2022-10-11T06:09:02.088Z,7.84
2022-10-11T06:10:02.086Z,7.86
2022-10-11T06:11:02.098Z,7.88
2022-10-11T06:12:02.053Z,8.00
2022-10-11T06:13:02.060Z,8.07
2022-10-11T06:14:02.048Z,8.12
2022-10-11T06:15:02.014Z,8.14
2022-10-11T06:16:02.393Z,8.24
2022-10-11T06:17:02.037Z,8.31
2022-10-11T06:18:01.989Z,8.40
2022-10-11T06:19:01.996Z,8.50
2022-10-11T06:20:01.975Z,8.52
2022-10-11T06:21:01.936Z,8.58
2022-10-11T06:22:01.925Z,8.67
2022-10-11T06:23:01.923Z,8.73
2022-10-11T06:24:01.913Z,8.80
2022-10-11T06:25:01.922Z,8.86
2022-10-11T06:26:02.291Z,8.96
2022-10-11T06:27:01.856Z,8.98
2022-10-11T06:28:01.856Z,9.08
2022-10-11T06:29:01.912Z,9.24
2022-10-11T06:30:01.818Z,9.35
2022-10-11T06:31:01.837Z,9.37
2022-10-11T06:32:01.804Z,9.52
2022-10-11T06:33:04.800Z,9.53
2022-10-11T06:34:01.881Z,9.70
2022-10-11T06:35:01.804Z,9.68
2022-10-11T06:36:02.064Z,9.70
2022-10-11T06:37:01.775Z,9.91
2022-10-11T06:38:01.727Z,10.04
2022-10-11T06:39:01.709Z,10.18
2022-10-11T06:40:01.699Z,10.34
2022-10-11T06:41:01.684Z,10.43
2022-10-11T06:42:01.719Z,10.57
2022-10-11T06:43:01.690Z,10.72
2022-10-11T06:44:01.655Z,10.81
2022-10-11T06:45:01.644Z,10.84
2022-10-11T06:46:01.977Z,10.91
2022-10-11T06:47:01.614Z,10.88
2022-10-11T06:48:01.939Z,10.86
2022-10-11T06:49:01.613Z,10.93
2022-10-11T06:50:01.597Z,11.05
2022-10-11T06:51:01.646Z,11.20
2022-10-11T06:52:01.571Z,11.13
2022-10-11T06:53:01.558Z,11.20
2022-10-11T06:54:01.525Z,11.23
2022-10-11T06:55:01.548Z,11.33
2022-10-11T06:56:01.785Z,11.45
2022-10-11T06:57:01.486Z,11.48
2022-10-11T06:58:02.205Z,11.54
2022-10-11T06:59:01.510Z,11.57
2022-10-11T07:00:01.449Z,11.72
2022-10-11T07:01:01.603Z,11.94
2022-10-11T07:02:01.422Z,11.93
2022-10-11T07:03:01.420Z,12.01
2022-10-11T07:04:01.454Z,12.11
2022-10-11T07:05:01.381Z,12.01
2022-10-11T07:06:02.606Z,12.12
2022-10-11T07:07:01.411Z,12.18
2022-10-11T07:08:01.343Z,12.16
2022-10-11T07:09:01.638Z,12.29
2022-10-11T07:10:01.341Z,12.33
2022-10-11T07:11:01.325Z,12.00
2022-10-11T07:12:01.328Z,11.85
2022-10-11T07:13:01.324Z,11.51
2022-10-11T07:14:01.291Z,11.59
2022-10-11T07:15:01.960Z,11.28
2022-10-11T07:16:01.252Z,11.13
2022-10-11T07:17:01.239Z,11.26
2022-10-11T07:18:01.258Z,11.44
2022-10-11T07:19:01.537Z,11.59
2022-10-11T07:20:01.206Z,11.72
2022-10-11T07:21:02.114Z,11.70
2022-10-11T07:22:01.168Z,11.57
2022-10-11T07:23:01.173Z,11.24
2022-10-11T07:24:01.206Z,11.19
2022-10-11T07:25:01.175Z,10.90
2022-10-11T07:26:04.337Z,10.88
2022-10-11T07:27:01.111Z,10.68
2022-10-11T07:28:01.091Z,10.62
2022-10-11T07:29:01.384Z,10.57
2022-10-11T07:30:01.768Z,10.47
2022-10-11T07:31:01.135Z,10.34
2022-10-11T07:32:01.043Z,10.43
2022-10-11T07:33:01.035Z,10.47
2022-10-11T07:34:01.045Z,10.76
2022-10-11T07:35:00.992Z,11.09
2022-10-11T07:36:01.042Z,11.44
2022-10-11T07:37:01.282Z,11.63
2022-10-11T07:38:00.989Z,11.63
2022-10-11T07:39:00.960Z,11.56
2022-10-11T07:40:00.966Z,11.54
2022-10-11T07:41:01.034Z,11.79
2022-10-11T07:42:00.926Z,11.84
2022-10-11T07:43:00.924Z,12.08
2022-10-11T07:44:00.913Z,12.11
2022-10-11T07:45:00.910Z,11.97
2022-10-11T07:46:00.886Z,11.79
2022-10-11T07:47:00.849Z,11.72
2022-10-11T07:48:00.827Z,11.77
2022-10-11T07:49:00.843Z,11.44
2022-10-11T07:50:00.814Z,10.93
2022-10-11T07:51:00.793Z,10.80
2022-10-11T07:52:00.783Z,10.76
2022-10-11T07:53:00.781Z,10.86
2022-10-11T07:54:06.117Z,10.94
2022-10-11T07:55:00.779Z,10.94
2022-10-11T07:56:00.739Z,11.11
2022-10-11T07:57:00.761Z,11.46
2022-10-11T07:58:01.721Z,11.75
2022-10-11T07:59:00.941Z,11.48
2022-10-11T08:00:01.603Z,11.74
2022-10-11T08:01:00.765Z,11.94
2022-10-11T08:02:03.220Z,11.88
2022-10-11T08:03:00.897Z,11.67
2022-10-11T08:04:00.658Z,11.46
2022-10-11T08:05:00.877Z,11.44
2022-10-11T08:06:00.618Z,11.49
2022-10-11T08:07:01.140Z,11.53
2022-10-11T08:08:00.622Z,11.39
2022-10-11T08:09:01.118Z,11.42
2022-10-11T08:10:00.609Z,11.23
2022-10-11T08:11:07.577Z,10.98
2022-10-11T08:12:00.546Z,11.03
2022-10-11T08:13:04.201Z,11.11
2022-10-11T08:14:01.104Z,11.31
2022-10-11T08:15:00.502Z,11.26
2022-10-11T08:16:00.500Z,11.13
2022-10-11T08:17:00.490Z,11.13
2022-10-11T08:18:00.464Z,11.41
2022-10-11T08:19:00.485Z,11.63
2022-10-11T08:20:00.412Z,11.90
2022-10-11T08:21:03.998Z,12.08
2022-10-11T08:22:00.442Z,12.21
2022-10-11T08:23:00.563Z,12.38
2022-10-11T08:24:00.664Z,12.33
2022-10-11T08:25:00.409Z,12.11
2022-10-11T08:26:00.418Z,12.34
2022-10-11T08:27:00.427Z,12.51
2022-10-11T08:28:00.570Z,12.63
2022-10-11T08:29:00.494Z,12.56
2022-10-11T08:30:00.482Z,12.67
2022-10-11T08:31:00.519Z,12.94
2022-10-11T08:32:00.832Z,12.74
2022-10-11T08:33:04.982Z,12.69
2022-10-11T08:34:01.147Z,12.84
2022-10-11T08:35:01.547Z,12.31
2022-10-11T08:36:00.248Z,12.22
2022-10-11T08:37:01.144Z,12.31
2022-10-11T08:38:00.264Z,12.40
2022-10-11T08:39:00.397Z,12.67
2022-10-11T08:40:00.185Z,12.81
2022-10-11T08:41:00.164Z,13.12
2022-10-11T08:42:00.155Z,13.28
2022-10-11T08:43:02.178Z,13.48
2022-10-11T08:44:00.371Z,13.65
2022-10-11T08:45:12.034Z,13.75
2022-10-11T08:46:08.226Z,13.76
2022-10-11T08:47:00.709Z,13.96
2022-10-11T08:48:00.089Z,13.93
2022-10-11T08:49:00.099Z,14.06
2022-10-11T08:50:07.045Z,14.09
2022-10-11T08:51:00.217Z,14.11
2022-10-11T08:52:00.061Z,14.31
2022-10-11T08:53:00.030Z,14.31
2022-10-11T08:54:04.717Z,14.49
2022-10-11T08:55:00.031Z,14.42
2022-10-11T08:55:59.974Z,14.16
2022-10-11T08:57:00.208Z,13.65
2022-10-11T08:57:59.929Z,12.99
2022-10-11T08:59:00.192Z,12.73
2022-10-11T08:59:59.922Z,12.73
2022-10-11T09:01:00.135Z,12.79
2022-10-11T09:02:00.015Z,12.88
2022-10-11T09:03:08.998Z,13.01
2022-10-11T09:03:59.899Z,13.19
2022-10-11T09:04:59.856Z,13.17
2022-10-11T09:05:59.832Z,13.32
2022-10-11T09:07:04.572Z,13.72
2022-10-11T09:07:59.866Z,14.06
2022-10-11T09:08:59.833Z,14.27
2022-10-11T09:09:59.814Z,14.42
2022-10-11T09:11:00.717Z,14.54
2022-10-11T09:11:59.777Z,14.86
2022-10-11T09:12:59.812Z,14.61
2022-10-11T09:13:59.765Z,14.56
2022-10-11T09:14:59.972Z,14.72
2022-10-11T09:16:01.598Z,14.95
2022-10-11T09:16:59.709Z,15.00
2022-10-11T09:17:59.924Z,15.05
2022-10-11T09:18:59.779Z,14.82
2022-10-11T09:20:00.472Z,14.49
2022-10-11T09:20:59.931Z,13.98
2022-10-11T09:21:59.631Z,14.06
2022-10-11T09:22:59.649Z,14.12
2022-10-11T09:23:59.644Z,13.96
2022-10-11T09:24:59.608Z,13.50
2022-10-11T09:25:59.595Z,13.51
2022-10-11T09:26:59.572Z,13.59
2022-10-11T09:28:03.946Z,13.63
2022-10-11T09:29:01.423Z,13.87
2022-10-11T09:30:00.291Z,14.39
2022-10-11T09:30:59.984Z,14.87
2022-10-11T09:31:59.747Z,15.20
2022-10-11T09:32:59.547Z,15.23
2022-10-11T09:34:00.246Z,15.41
2022-10-11T09:34:59.708Z,15.35
2022-10-11T09:35:59.469Z,14.64
2022-10-11T09:36:59.573Z,14.11
2022-10-11T09:37:59.486Z,13.84
2022-10-11T09:39:04.228Z,14.23
2022-10-11T09:39:59.777Z,14.54
2022-10-11T09:41:00.398Z,14.57
2022-10-11T09:41:59.424Z,14.57
2022-10-11T09:42:59.459Z,14.78
2022-10-11T09:44:00.491Z,15.12
2022-10-11T09:44:59.381Z,14.86
2022-10-11T09:45:59.322Z,14.74
2022-10-11T09:46:59.534Z,14.53
2022-10-11T09:47:59.548Z,14.31
2022-10-11T09:48:59.876Z,14.23
2022-10-11T09:50:00.242Z,14.09
2022-10-11T09:51:00.911Z,13.81
2022-10-11T09:52:02.390Z,13.61
2022-10-11T09:52:59.218Z,13.87
2022-10-11T09:53:59.313Z,14.19
2022-10-11T09:54:59.269Z,14.59
2022-10-11T09:55:59.220Z,14.80
2022-10-11T09:56:59.191Z,14.56
2022-10-11T09:58:01.224Z,14.72
2022-10-11T09:58:59.209Z,15.01
2022-10-11T09:59:59.436Z,15.25
2022-10-11T10:01:07.580Z,15.31
2022-10-11T10:01:59.214Z,15.40
2022-10-11T10:02:59.123Z,15.34
2022-10-11T10:03:59.753Z,15.55
2022-10-11T10:04:59.768Z,15.68
2022-10-11T10:05:59.458Z,15.73
2022-10-11T10:06:59.838Z,15.86
2022-10-11T10:08:04.059Z,15.95
2022-10-11T10:08:59.028Z,15.55
2022-10-11T10:09:59.486Z,14.69
2022-10-11T10:10:59.767Z,14.71
2022-10-11T10:11:59.133Z,15.19
2022-10-11T10:12:59.746Z,15.70
2022-10-11T10:14:07.753Z,15.91
2022-10-11T10:15:35.331Z,16.22
2022-10-11T10:15:58.941Z,16.51
2022-10-11T10:16:59.859Z,16.55
2022-10-11T10:17:59.098Z,15.86
2022-10-11T10:18:58.914Z,15.41
2022-10-11T10:19:58.872Z,15.07
2022-10-11T10:20:58.916Z,15.15
2022-10-11T10:21:58.852Z,15.34
2022-10-11T10:22:58.858Z,15.30
2022-10-11T10:23:58.856Z,15.33
2022-10-11T10:24:58.814Z,15.27
2022-10-11T10:25:58.807Z,15.31
2022-10-11T10:26:58.786Z,15.40
2022-10-11T10:27:58.780Z,15.68
2022-10-11T10:28:58.945Z,15.51
2022-10-11T10:29:58.805Z,15.70
2022-10-11T10:30:58.738Z,15.41
2022-10-11T10:32:15.104Z,15.38
2022-10-11T10:32:58.724Z,15.44
2022-10-11T10:33:58.803Z,15.13
2022-10-11T10:34:58.715Z,15.12
2022-10-11T10:35:58.686Z,15.37
2022-10-11T10:36:58.657Z,15.76
2022-10-11T10:37:58.654Z,15.64
2022-10-11T10:38:59.045Z,15.98
2022-10-11T10:39:58.663Z,15.96
2022-10-11T10:40:58.631Z,15.71
2022-10-11T10:41:58.628Z,15.31
2022-10-11T10:42:58.614Z,15.60
2022-10-11T10:43:58.584Z,15.41
2022-10-11T10:44:58.569Z,15.43
2022-10-11T10:45:58.562Z,15.62
2022-10-11T10:46:58.543Z,15.74
2022-10-11T10:47:58.576Z,15.59
2022-10-11T10:49:58.519Z,15.18
2022-10-11T10:50:58.500Z,15.52
2022-10-11T10:51:58.466Z,15.52
2022-10-11T10:52:58.522Z,15.85
2022-10-11T10:53:58.556Z,15.85
2022-10-11T10:54:58.439Z,15.96
2022-10-11T10:55:58.437Z,16.26
2022-10-11T10:56:58.416Z,16.36
2022-10-11T10:57:58.418Z,16.13
2022-10-11T10:58:58.409Z,15.64
2022-10-11T10:59:58.412Z,15.56
2022-10-11T11:00:58.362Z,15.78
2022-10-11T11:02:11.193Z,15.74
2022-10-11T11:02:58.480Z,15.20
2022-10-11T11:03:58.328Z,14.69
2022-10-11T11:05:58.329Z,14.45
2022-10-11T11:06:58.277Z,14.67
2022-10-11T11:07:58.430Z,14.74
2022-10-11T11:08:59.306Z,14.48
2022-10-11T11:09:58.251Z,14.12
2022-10-11T11:10:58.247Z,14.13
2022-10-11T11:11:58.306Z,14.26
2022-10-11T11:12:58.209Z,14.56
2022-10-11T11:13:58.234Z,14.63
2022-10-11T11:14:58.186Z,14.90
2022-10-11T11:15:58.171Z,15.12
2022-10-11T11:16:58.147Z,15.20
2022-10-11T11:17:58.214Z,15.66
2022-10-11T11:18:58.217Z,15.56
2022-10-11T11:19:58.117Z,16.08
2022-10-11T11:20:58.117Z,16.72
2022-10-11T11:21:58.349Z,16.54
2022-10-11T11:23:06.810Z,16.50
2022-10-11T11:23:58.089Z,16.25
2022-10-11T11:25:20.058Z,16.30
2022-10-11T11:25:58.071Z,15.92
2022-10-11T11:26:58.055Z,15.73
2022-10-11T11:27:58.104Z,15.93
2022-10-11T11:28:58.079Z,16.26
2022-10-11T11:29:57.998Z,16.48
2022-10-11T11:30:58.552Z,16.23
2022-10-11T11:31:58.031Z,16.50
2022-10-11T11:32:58.069Z,16.48
2022-10-11T11:33:57.958Z,16.47
2022-10-11T11:35:09.132Z,16.34
2022-10-11T11:35:57.932Z,16.52
2022-10-11T11:36:57.976Z,16.70
2022-10-11T11:38:03.844Z,16.80
2022-10-11T11:38:57.902Z,16.98
2022-10-11T11:39:57.993Z,16.95
2022-10-11T11:40:57.888Z,16.54
2022-10-11T11:42:02.985Z,16.77
2022-10-11T11:42:58.787Z,16.32
2022-10-11T11:43:57.844Z,16.03
2022-10-11T11:44:57.871Z,16.14
2022-10-11T11:45:57.806Z,16.36
2022-10-11T11:46:59.004Z,16.51
2022-10-11T11:47:59.006Z,16.82
2022-10-11T11:48:57.962Z,16.66
2022-10-11T11:49:57.965Z,16.42
2022-10-11T11:50:57.772Z,16.65
2022-10-11T11:51:57.768Z,17.17
2022-10-11T11:52:57.728Z,16.98
2022-10-11T11:53:57.700Z,16.63
2022-10-11T11:55:01.453Z,16.08
2022-10-11T11:55:57.662Z,15.98
2022-10-11T11:56:58.510Z,15.67
2022-10-11T11:57:57.644Z,15.41
2022-10-11T11:58:57.687Z,15.51
2022-10-11T11:59:57.668Z,15.77
2022-10-11T12:00:57.709Z,15.93
2022-10-11T12:01:57.640Z,15.62
2022-10-11T12:02:57.645Z,15.46
2022-10-11T12:03:57.565Z,15.41
2022-10-11T12:04:57.584Z,15.12
2022-10-11T12:05:57.543Z,15.19
2022-10-11T12:07:14.867Z,14.86
2022-10-11T12:08:00.337Z,14.49
2022-10-11T12:08:57.505Z,14.35
2022-10-11T12:09:57.484Z,14.39
2022-10-11T12:10:57.921Z,14.67
2022-10-11T12:11:58.321Z,14.98
2022-10-11T12:12:58.355Z,15.35
2022-10-11T12:13:59.106Z,15.22
2022-10-11T12:14:57.659Z,15.56
2022-10-11T12:15:57.589Z,16.27
2022-10-11T12:16:58.270Z,16.54
2022-10-11T12:17:58.356Z,16.75
2022-10-11T12:18:57.374Z,16.54
2022-10-11T12:19:57.877Z,16.27
2022-10-11T12:20:57.414Z,16.42
2022-10-11T12:21:57.386Z,16.18
2022-10-11T12:22:57.337Z,16.29
2022-10-11T12:23:57.316Z,16.08
2022-10-11T12:24:57.293Z,15.60
2022-10-11T12:26:05.856Z,15.44
2022-10-11T12:27:04.960Z,15.71
2022-10-11T12:27:57.401Z,15.60
2022-10-11T12:28:57.280Z,15.34
2022-10-11T12:29:57.240Z,14.94
2022-10-11T12:30:57.275Z,15.12
2022-10-11T12:31:57.295Z,14.95
2022-10-11T12:32:57.224Z,14.82
2022-10-11T12:33:58.839Z,15.00
2022-10-11T12:34:57.745Z,15.15
2022-10-11T12:36:07.398Z,15.23
2022-10-11T12:36:57.163Z,15.34
2022-10-11T12:37:57.833Z,15.38
2022-10-11T12:38:58.778Z,15.52
2022-10-11T12:39:57.161Z,15.81
2022-10-11T12:40:57.094Z,15.80
2022-10-11T12:41:57.086Z,15.84
2022-10-11T12:42:57.063Z,16.01
2022-10-11T12:43:57.078Z,16.13
2022-10-11T12:44:57.042Z,16.45
2022-10-11T12:45:57.074Z,16.98
2022-10-11T12:46:57.023Z,17.35
2022-10-11T12:47:57.850Z,16.98
2022-10-11T12:48:56.983Z,17.22
2022-10-11T12:49:56.994Z,17.68
2022-10-11T12:51:00.830Z,17.02
2022-10-11T12:51:56.974Z,16.77
2022-10-11T12:52:56.948Z,16.81
2022-10-11T12:54:14.742Z,16.60
2022-10-11T12:55:04.561Z,16.66
2022-10-11T12:55:57.682Z,16.23
2022-10-11T12:56:58.229Z,16.72
2022-10-11T12:57:57.324Z,16.99
2022-10-11T12:58:57.783Z,17.21
2022-10-11T12:59:57.764Z,16.78
2022-10-11T13:00:56.955Z,16.32
2022-10-11T13:01:56.821Z,15.85
2022-10-11T13:02:56.802Z,15.86
2022-10-11T13:04:12.251Z,16.01
2022-10-11T13:04:57.953Z,16.27
2022-10-11T13:06:01.640Z,16.14
2022-10-11T13:06:57.817Z,15.88